Nanchong, China
Current Conditions -  °F | °C
As of 7:00 AM on Saturday 20 Dec 2014 (Local Time) from ZUCK Reporting Station
Haze Haze  
Wind Chill: 37°   Ceiling: Unl
Heat Index: 37°   Visibility: 2.5mi
Dew Point: 32°   Wind: 2mph
Humidity: 81%   Direction: 30°NNE
Pressure: 30.15"   Gusts: NA
Location:  30.78°N, 106.13°E
Report Text: ZUCK 192300Z 03001MPS 4000 BR FEW046 03/00 Q1021 NOSIG
Loading
Personal Weather Stations






























Interactive Weather Map New forecast layout! Learn more

10-Day Weather Forecast

Advertisements
Track Severe Weather on mobile